createdAt,value
2018-08-11T00:00:05.628Z,0.00
2018-08-11T00:01:05.820Z,0.00
2018-08-11T00:02:06.009Z,0.00
2018-08-11T00:03:06.196Z,0.00
2018-08-11T00:04:06.369Z,0.00
2018-08-11T00:05:06.547Z,0.00
2018-08-11T00:06:06.722Z,0.00
2018-08-11T00:07:06.899Z,0.00
2018-08-11T00:08:07.086Z,0.00
2018-08-11T00:09:07.266Z,0.00
2018-08-11T00:10:07.436Z,0.00
2018-08-11T00:11:07.614Z,0.00
2018-08-11T00:12:07.785Z,0.00
2018-08-11T00:13:07.965Z,0.00
2018-08-11T00:14:08.141Z,0.00
2018-08-11T00:15:08.320Z,0.00
2018-08-11T00:16:08.503Z,0.00
2018-08-11T00:17:08.672Z,0.00
2018-08-11T00:18:08.846Z,0.00
2018-08-11T00:19:09.022Z,0.00
2018-08-11T00:20:09.203Z,0.00
2018-08-11T00:21:09.382Z,0.00
2018-08-11T00:22:09.557Z,0.00
2018-08-11T00:23:09.732Z,0.00
2018-08-11T00:24:09.905Z,0.00
2018-08-11T00:25:10.083Z,0.00
2018-08-11T00:26:10.260Z,0.00
2018-08-11T00:27:10.439Z,0.00
2018-08-11T00:28:10.609Z,0.00
2018-08-11T00:29:10.786Z,0.00
2018-08-11T00:30:10.963Z,0.00
2018-08-11T00:31:11.146Z,0.00
2018-08-11T00:32:11.323Z,0.00
2018-08-11T00:33:11.500Z,0.00
2018-08-11T00:34:11.671Z,0.00
2018-08-11T00:35:11.853Z,0.00
2018-08-11T00:36:12.026Z,0.00
2018-08-11T00:37:12.195Z,0.00
2018-08-11T00:38:12.371Z,0.00
2018-08-11T00:39:12.544Z,0.00
2018-08-11T00:40:12.717Z,0.00
2018-08-11T00:41:12.884Z,0.00
2018-08-11T00:42:13.075Z,0.00
2018-08-11T00:43:13.265Z,0.00
2018-08-11T00:44:13.434Z,0.00
2018-08-11T00:45:13.629Z,0.00
2018-08-11T00:46:13.796Z,0.00
2018-08-11T00:47:13.970Z,0.00
2018-08-11T00:48:14.166Z,0.00
2018-08-11T00:49:14.363Z,0.00
2018-08-11T00:50:14.540Z,0.00
2018-08-11T00:51:14.712Z,0.00
2018-08-11T00:52:14.905Z,0.00
2018-08-11T00:53:15.076Z,0.00
2018-08-11T00:54:15.249Z,0.00
2018-08-11T00:55:15.434Z,0.00
2018-08-11T00:56:15.597Z,0.00
2018-08-11T00:57:15.779Z,0.00
2018-08-11T00:58:15.978Z,0.00
2018-08-11T00:59:16.140Z,0.00
2018-08-11T01:00:16.321Z,0.00
2018-08-11T01:01:16.486Z,0.00
2018-08-11T01:02:16.667Z,0.00
2018-08-11T01:03:16.843Z,0.00
2018-08-11T01:04:17.036Z,0.00
2018-08-11T01:05:17.182Z,0.00
2018-08-11T01:06:17.355Z,0.00
2018-08-11T01:07:18.739Z,0.00
2018-08-11T01:08:19.360Z,0.00
2018-08-11T01:09:17.887Z,0.00
2018-08-11T01:10:18.058Z,0.00
2018-08-11T01:11:18.238Z,0.00
2018-08-11T01:12:18.410Z,0.00
2018-08-11T01:13:18.596Z,0.00
2018-08-11T01:14:18.766Z,0.00
2018-08-11T01:15:18.942Z,0.00
2018-08-11T01:16:19.123Z,0.00
2018-08-11T01:17:19.296Z,0.00
2018-08-11T01:18:19.477Z,0.00
2018-08-11T01:19:19.645Z,0.00
2018-08-11T01:20:19.816Z,0.00
2018-08-11T01:21:19.991Z,0.00
2018-08-11T01:22:20.186Z,0.00
2018-08-11T01:23:20.372Z,0.00
2018-08-11T01:24:20.543Z,0.00
2018-08-11T01:25:20.721Z,0.00
2018-08-11T01:26:20.899Z,0.00
2018-08-11T01:27:21.071Z,0.00
2018-08-11T01:28:21.242Z,0.00
2018-08-11T01:29:21.420Z,0.00
2018-08-11T01:30:21.602Z,0.00
2018-08-11T01:31:21.770Z,0.00
2018-08-11T01:32:21.942Z,0.00
2018-08-11T01:33:22.109Z,0.00
2018-08-11T01:34:22.286Z,0.00
2018-08-11T01:35:22.457Z,0.00
2018-08-11T01:36:22.636Z,0.00
2018-08-11T01:37:22.827Z,0.00
2018-08-11T01:38:23.000Z,0.00
2018-08-11T01:39:23.173Z,0.00
2018-08-11T01:40:23.347Z,0.00
2018-08-11T01:41:23.516Z,0.00
2018-08-11T01:42:23.683Z,0.00
2018-08-11T01:43:23.856Z,0.00
2018-08-11T01:44:24.124Z,0.00
2018-08-11T01:45:24.199Z,0.00
2018-08-11T01:46:24.379Z,0.00
2018-08-11T01:47:24.558Z,0.00
2018-08-11T01:48:24.730Z,0.00
2018-08-11T01:49:24.897Z,0.00
2018-08-11T01:50:25.073Z,0.00
2018-08-11T01:51:25.247Z,0.00
2018-08-11T01:52:25.431Z,0.00
2018-08-11T01:53:25.610Z,0.00
2018-08-11T01:54:25.781Z,0.00
2018-08-11T01:55:25.960Z,0.00
2018-08-11T01:56:26.134Z,0.00
2018-08-11T01:57:26.304Z,0.00
2018-08-11T01:58:26.482Z,0.00
2018-08-11T01:59:26.660Z,0.00
2018-08-11T02:00:26.836Z,0.00
2018-08-11T02:01:27.024Z,0.00
2018-08-11T02:02:27.197Z,0.00
2018-08-11T02:03:27.370Z,0.00
2018-08-11T02:04:27.539Z,0.00
2018-08-11T02:05:27.708Z,0.00
2018-08-11T02:06:27.882Z,0.00
2018-08-11T02:07:28.049Z,0.00
2018-08-11T02:08:28.228Z,0.00
2018-08-11T02:09:28.403Z,0.00
2018-08-11T02:10:28.581Z,0.00
2018-08-11T02:11:28.753Z,0.00
2018-08-11T02:12:28.921Z,0.00
2018-08-11T02:13:29.097Z,0.00
2018-08-11T02:14:29.272Z,0.00
2018-08-11T02:15:29.444Z,0.00
2018-08-11T02:16:29.620Z,0.00
2018-08-11T02:17:29.797Z,0.00
2018-08-11T02:18:29.964Z,0.00
2018-08-11T02:19:30.146Z,0.00
2018-08-11T02:20:30.325Z,0.00
2018-08-11T02:21:30.494Z,0.00
2018-08-11T02:22:30.671Z,0.00
2018-08-11T02:23:30.841Z,0.00
2018-08-11T02:24:31.015Z,0.00
2018-08-11T02:25:31.184Z,0.00
2018-08-11T02:26:31.356Z,0.00
2018-08-11T02:27:31.529Z,0.00
2018-08-11T02:28:31.705Z,0.00
2018-08-11T02:29:31.875Z,0.00
2018-08-11T02:30:32.041Z,0.00
2018-08-11T02:31:32.230Z,0.00
2018-08-11T02:32:32.411Z,0.00
2018-08-11T02:33:32.585Z,0.00
2018-08-11T02:34:32.758Z,0.00
2018-08-11T02:35:32.933Z,0.00
2018-08-11T02:36:33.104Z,0.00
2018-08-11T02:37:33.267Z,0.00
2018-08-11T02:38:33.449Z,0.00
2018-08-11T02:39:33.608Z,0.00
2018-08-11T02:40:33.781Z,0.00
2018-08-11T02:41:33.953Z,0.00
2018-08-11T02:42:34.138Z,0.00
2018-08-11T02:43:34.332Z,0.00
2018-08-11T02:44:34.529Z,0.00
2018-08-11T02:45:34.710Z,0.00
2018-08-11T02:46:34.878Z,0.00
2018-08-11T02:47:35.059Z,0.00
2018-08-11T02:48:35.241Z,0.00
2018-08-11T02:49:35.419Z,0.00
2018-08-11T02:50:35.600Z,0.00
2018-08-11T02:51:35.775Z,0.00
2018-08-11T02:52:35.953Z,0.00
2018-08-11T02:53:36.136Z,0.00
2018-08-11T02:54:36.328Z,0.00
2018-08-11T02:55:36.496Z,0.00
2018-08-11T02:56:36.662Z,0.00
2018-08-11T02:57:36.839Z,0.00
2018-08-11T02:58:37.012Z,0.00
2018-08-11T02:59:37.183Z,0.00
2018-08-11T03:00:37.354Z,0.00
2018-08-11T03:01:37.534Z,0.00
2018-08-11T03:02:37.883Z,0.00
2018-08-11T03:03:37.898Z,0.00
2018-08-11T03:04:38.069Z,0.00
2018-08-11T03:05:38.253Z,0.00
2018-08-11T03:06:38.424Z,0.00
2018-08-11T03:07:38.597Z,0.00
2018-08-11T03:08:38.781Z,0.00
2018-08-11T03:09:38.975Z,0.00
2018-08-11T03:10:39.148Z,0.00
2018-08-11T03:11:39.325Z,0.00
2018-08-11T03:12:39.496Z,0.00
2018-08-11T03:13:39.672Z,0.00
2018-08-11T03:14:39.854Z,0.00
2018-08-11T03:15:40.037Z,0.00
2018-08-11T03:16:40.227Z,0.00
2018-08-11T03:17:40.419Z,0.00
2018-08-11T03:18:40.578Z,0.00
2018-08-11T03:19:40.759Z,0.00
2018-08-11T03:20:40.936Z,0.00
2018-08-11T03:21:41.120Z,0.00
2018-08-11T03:22:41.300Z,0.00
2018-08-11T03:23:41.511Z,0.00
2018-08-11T03:24:41.673Z,0.00
2018-08-11T03:25:41.845Z,0.00
2018-08-11T03:26:42.012Z,0.00
2018-08-11T03:27:42.195Z,0.00
2018-08-11T03:28:42.367Z,0.00
2018-08-11T03:29:42.546Z,0.00
2018-08-11T03:30:42.737Z,0.00
2018-08-11T03:31:42.910Z,0.00
2018-08-11T03:32:43.085Z,0.00
2018-08-11T03:33:43.254Z,0.00
2018-08-11T03:34:43.434Z,0.00
2018-08-11T03:35:43.605Z,0.00
2018-08-11T03:36:43.792Z,0.00
2018-08-11T03:37:43.974Z,0.00
2018-08-11T03:38:44.145Z,0.00
2018-08-11T03:39:44.320Z,0.00
2018-08-11T03:40:44.487Z,4.00
2018-08-11T03:41:44.666Z,4.00
2018-08-11T03:42:44.844Z,0.00
2018-08-11T03:43:45.019Z,4.00
2018-08-11T03:44:45.206Z,4.00
2018-08-11T03:45:45.377Z,4.00
2018-08-11T03:46:45.554Z,4.00
2018-08-11T03:47:45.736Z,8.00
2018-08-11T03:48:45.925Z,8.00
2018-08-11T03:49:46.098Z,4.00
2018-08-11T03:50:46.283Z,8.00
2018-08-11T03:51:46.464Z,8.00
2018-08-11T03:52:46.647Z,12.00
2018-08-11T03:53:46.824Z,12.00
2018-08-11T03:54:47.002Z,12.00
2018-08-11T03:55:47.177Z,12.00
2018-08-11T03:56:47.344Z,16.00
2018-08-11T03:57:47.519Z,16.00
2018-08-11T03:58:47.695Z,20.00
2018-08-11T03:59:47.859Z,24.00
2018-08-11T04:00:48.043Z,24.00
2018-08-11T04:01:48.216Z,24.00
2018-08-11T04:02:48.400Z,28.00
2018-08-11T04:03:48.573Z,28.00
2018-08-11T04:04:48.751Z,32.00
2018-08-11T04:05:48.933Z,32.00
2018-08-11T04:06:49.110Z,36.00
2018-08-11T04:07:49.283Z,36.00
2018-08-11T04:08:49.460Z,40.00
2018-08-11T04:09:49.639Z,48.00
2018-08-11T04:10:49.812Z,52.00
2018-08-11T04:11:49.980Z,60.00
2018-08-11T04:12:50.153Z,64.00
2018-08-11T04:13:50.331Z,68.00
2018-08-11T04:14:50.504Z,72.00
2018-08-11T04:15:50.677Z,76.00
2018-08-11T04:16:50.850Z,76.00
2018-08-11T04:17:51.015Z,80.00
2018-08-11T04:18:51.192Z,80.00
2018-08-11T04:19:51.364Z,80.00
2018-08-11T04:20:51.541Z,84.00
2018-08-11T04:21:51.714Z,88.00
2018-08-11T04:22:51.889Z,100.00
2018-08-11T04:23:52.061Z,100.00
2018-08-11T04:24:52.232Z,112.00
2018-08-11T04:25:52.403Z,120.00
2018-08-11T04:26:52.570Z,128.00
2018-08-11T04:27:52.748Z,132.00
2018-08-11T04:28:52.945Z,148.00
2018-08-11T04:29:53.142Z,160.00
2018-08-11T04:30:53.311Z,172.00
2018-08-11T04:31:53.488Z,176.00
2018-08-11T04:32:53.665Z,188.00
2018-08-11T04:33:53.851Z,212.00
2018-08-11T04:34:54.024Z,216.00
2018-08-11T04:35:54.197Z,228.00
2018-08-11T04:36:54.376Z,236.00
2018-08-11T04:37:54.555Z,252.00
2018-08-11T04:38:54.722Z,276.00
2018-08-11T04:39:54.897Z,304.00
2018-08-11T04:40:55.062Z,328.00
2018-08-11T04:41:55.270Z,344.00
2018-08-11T04:42:55.416Z,376.00
2018-08-11T04:43:55.584Z,380.00
2018-08-11T04:44:55.761Z,396.00
2018-08-11T04:45:55.937Z,404.00
2018-08-11T04:46:56.177Z,436.00
2018-08-11T04:47:56.240Z,452.00
2018-08-11T04:48:56.415Z,484.00
2018-08-11T04:49:56.576Z,500.00
2018-08-11T04:50:56.752Z,524.00
2018-08-11T04:51:56.922Z,540.00
2018-08-11T04:52:57.098Z,556.00
2018-08-11T04:53:57.277Z,572.00
2018-08-11T04:54:57.448Z,600.00
2018-08-11T04:55:57.624Z,620.00
2018-08-11T04:56:57.812Z,636.00
2018-08-11T04:57:57.992Z,652.00
2018-08-11T04:58:58.258Z,652.00
2018-08-11T04:59:58.285Z,664.00
2018-08-11T05:00:58.456Z,672.00
2018-08-11T05:02:01.959Z,672.00
2018-08-11T05:03:05.391Z,668.00
2018-08-11T05:03:59.865Z,676.00
2018-08-11T05:04:59.035Z,688.00
2018-08-11T05:05:59.211Z,684.00
2018-08-11T05:06:59.392Z,692.00
2018-08-11T05:07:59.581Z,704.00
2018-08-11T05:08:59.760Z,724.00
2018-08-11T05:09:59.938Z,756.00
2018-08-11T05:11:00.112Z,796.00
2018-08-11T05:12:00.293Z,808.00
2018-08-11T05:13:00.461Z,844.00
2018-08-11T05:14:00.638Z,888.00
2018-08-11T05:15:00.807Z,924.00
2018-08-11T05:16:00.981Z,956.00
2018-08-11T05:17:01.157Z,948.00
2018-08-11T05:18:02.663Z,976.00
2018-08-11T05:19:01.530Z,1012.00
2018-08-11T05:20:01.795Z,1020.00
2018-08-11T05:21:01.883Z,1052.00
2018-08-11T05:22:02.121Z,1140.00
2018-08-11T05:23:02.282Z,1196.00
2018-08-11T05:24:02.474Z,1236.00
2018-08-11T05:25:02.642Z,1300.00
2018-08-11T05:26:02.840Z,1384.00
2018-08-11T05:27:03.039Z,1436.00
2018-08-11T05:28:03.201Z,1548.00
2018-08-11T05:29:03.388Z,1544.00
2018-08-11T05:30:03.644Z,1520.00
2018-08-11T05:31:03.741Z,1492.00
2018-08-11T05:32:03.921Z,1480.00
2018-08-11T05:33:04.118Z,1452.00
2018-08-11T05:34:04.280Z,1480.00
2018-08-11T05:35:04.450Z,1576.00
2018-08-11T05:36:04.627Z,1668.00
2018-08-11T05:37:04.811Z,1708.00
2018-08-11T05:38:04.986Z,1716.00
2018-08-11T05:39:05.173Z,1672.00
2018-08-11T05:40:05.355Z,1776.00
2018-08-11T05:41:05.536Z,1776.00
2018-08-11T05:42:05.903Z,1852.00
2018-08-11T05:43:05.891Z,1892.00
2018-08-11T05:44:06.238Z,1892.00
2018-08-11T05:45:06.170Z,1908.00
2018-08-11T05:46:06.356Z,1900.00
2018-08-11T05:47:06.553Z,2004.00
2018-08-11T05:48:06.740Z,2104.00
2018-08-11T05:49:06.915Z,2224.00
2018-08-11T05:50:07.104Z,2252.00
2018-08-11T05:51:07.291Z,2220.00
2018-08-11T05:52:07.474Z,2164.00
2018-08-11T05:53:07.652Z,2140.00
2018-08-11T05:54:07.835Z,2196.00
2018-08-11T05:55:08.033Z,2260.00
2018-08-11T05:56:08.200Z,2180.00
2018-08-11T05:57:08.380Z,2092.00
2018-08-11T05:58:08.565Z,1992.00
2018-08-11T05:59:08.741Z,1996.00
2018-08-11T06:00:08.908Z,2192.00
2018-08-11T06:01:09.087Z,2660.00
2018-08-11T06:02:09.309Z,2908.00
2018-08-11T06:03:09.438Z,3096.00
2018-08-11T06:04:09.624Z,3464.00
2018-08-11T06:05:09.802Z,3532.00
2018-08-11T06:06:10.327Z,3772.00
2018-08-11T06:07:10.224Z,4000.00
2018-08-11T06:08:10.348Z,3968.00
2018-08-11T06:09:10.640Z,3844.00
2018-08-11T06:10:10.647Z,3728.00
2018-08-11T06:11:10.829Z,3732.00
2018-08-11T06:12:11.271Z,3988.00
2018-08-11T06:13:11.493Z,4096.00
2018-08-11T06:14:11.363Z,4156.00
2018-08-11T06:15:11.709Z,4228.00
2018-08-11T06:16:11.763Z,4348.00
2018-08-11T06:17:11.982Z,5964.00
2018-08-11T06:18:12.169Z,6084.00
2018-08-11T06:19:16.963Z,4728.00
2018-08-11T06:20:15.654Z,4984.00
2018-08-11T06:21:16.166Z,6476.00
2018-08-11T06:22:14.294Z,5076.00
2018-08-11T06:23:16.251Z,5012.00
2018-08-11T06:24:16.238Z,6268.00
2018-08-11T06:25:13.191Z,5220.00
2018-08-11T06:26:14.772Z,4996.00
2018-08-11T06:27:13.728Z,3528.00
2018-08-11T06:28:13.941Z,2884.00
2018-08-11T06:29:17.249Z,3272.00
2018-08-11T06:30:17.241Z,2972.00
2018-08-11T06:31:15.602Z,2772.00
2018-08-11T06:32:17.263Z,2592.00
2018-08-11T06:33:14.979Z,2644.00
2018-08-11T06:34:15.317Z,2660.00
2018-08-11T06:35:16.336Z,3008.00
2018-08-11T06:36:16.295Z,3448.00
2018-08-11T06:37:18.950Z,3796.00
2018-08-11T06:38:15.474Z,5140.00
2018-08-11T06:39:19.152Z,7324.00
2018-08-11T06:40:17.664Z,6780.00
2018-08-11T06:41:17.661Z,6364.00
2018-08-11T06:42:17.226Z,6724.00
2018-08-11T06:43:16.739Z,6832.00
2018-08-11T06:44:16.625Z,6680.00
2018-08-11T06:45:16.693Z,7112.00
2018-08-11T06:46:16.840Z,6296.00
2018-08-11T06:47:16.873Z,5268.00
2018-08-11T06:48:16.921Z,5308.00
2018-08-11T06:49:17.052Z,5376.00
2018-08-11T06:50:17.537Z,5868.00
2018-08-11T06:51:17.663Z,4136.00
2018-08-11T06:52:17.707Z,3012.00
2018-08-11T06:53:18.023Z,2480.00
2018-08-11T06:54:18.103Z,2096.00
2018-08-11T06:55:18.177Z,1924.00
2018-08-11T06:56:18.318Z,1772.00
2018-08-11T06:57:18.372Z,1568.00
2018-08-11T06:58:18.974Z,1400.00
2018-08-11T06:59:19.027Z,1460.00
2018-08-11T07:00:19.059Z,1648.00
2018-08-11T07:01:19.300Z,1800.00
2018-08-11T07:02:19.316Z,2008.00
2018-08-11T07:03:19.772Z,2004.00
2018-08-11T07:04:19.884Z,1920.00
2018-08-11T07:05:19.960Z,2168.00
2018-08-11T07:06:20.148Z,2528.00
2018-08-11T07:07:20.353Z,2724.00
2018-08-11T07:08:20.223Z,2452.00
2018-08-11T07:09:20.415Z,2368.00
2018-08-11T07:10:20.698Z,2404.00
2018-08-11T07:11:21.633Z,2428.00
2018-08-11T07:12:20.906Z,2532.00
2018-08-11T07:13:21.327Z,2528.00
2018-08-11T07:14:21.190Z,2672.00
2018-08-11T07:15:21.464Z,2952.00
2018-08-11T07:16:21.561Z,3788.00
2018-08-11T07:17:21.918Z,5200.00
2018-08-11T07:18:22.130Z,6356.00
2018-08-11T07:19:22.215Z,8368.00
2018-08-11T07:20:22.341Z,7516.00
2018-08-11T07:21:22.399Z,8148.00
2018-08-11T07:22:22.598Z,8072.00
2018-08-11T07:23:23.533Z,9204.00
2018-08-11T07:24:22.986Z,10452.00
2018-08-11T07:25:23.667Z,10232.00
2018-08-11T07:26:23.234Z,7636.00
2018-08-11T07:27:23.437Z,6556.00
2018-08-11T07:28:23.628Z,7068.00
2018-08-11T07:29:23.836Z,6472.00
2018-08-11T07:30:24.026Z,6956.00
2018-08-11T07:31:24.227Z,7804.00
2018-08-11T07:32:25.503Z,8464.00
2018-08-11T07:33:24.648Z,9080.00
2018-08-11T07:34:24.792Z,7956.00
2018-08-11T07:35:24.931Z,8744.00
2018-08-11T07:36:25.530Z,9584.00
2018-08-11T07:37:25.223Z,11152.00
2018-08-11T07:38:25.551Z,12064.00
2018-08-11T07:39:25.793Z,11036.00
2018-08-11T07:40:26.311Z,13856.00
2018-08-11T07:41:26.240Z,13820.00
2018-08-11T07:42:26.406Z,11684.00
2018-08-11T07:43:26.640Z,10528.00
2018-08-11T07:44:27.593Z,13600.00
2018-08-11T07:45:27.172Z,13812.00
2018-08-11T07:46:27.035Z,13172.00
2018-08-11T07:47:27.609Z,12144.00
2018-08-11T07:48:27.834Z,11176.00
2018-08-11T07:49:27.777Z,12676.00
2018-08-11T07:50:28.514Z,13720.00
2018-08-11T07:51:28.209Z,14184.00
2018-08-11T07:52:28.056Z,14756.00
2018-08-11T07:53:28.278Z,18656.00
2018-08-11T07:54:28.463Z,41024.00
2018-08-11T07:55:29.102Z,70688.00
2018-08-11T07:56:28.904Z,93344.00
2018-08-11T07:57:29.010Z,100992.00
2018-08-11T07:58:29.196Z,102144.00
2018-08-11T07:59:29.650Z,102560.00
2018-08-11T08:00:29.629Z,103968.00
2018-08-11T08:01:29.810Z,105664.00
2018-08-11T08:02:29.779Z,105824.00
2018-08-11T08:03:29.990Z,101344.00
2018-08-11T08:04:30.203Z,101152.00
2018-08-11T08:05:30.833Z,102112.00
2018-08-11T08:06:30.871Z,100320.00
2018-08-11T08:07:31.389Z,104160.00
2018-08-11T08:08:30.774Z,105472.00
2018-08-11T08:09:32.879Z,107648.00
2018-08-11T08:10:31.369Z,102368.00
2018-08-11T08:11:31.643Z,100256.00
2018-08-11T08:12:31.664Z,95968.00
2018-08-11T08:13:31.837Z,95136.00
2018-08-11T08:14:31.872Z,65152.00
2018-08-11T08:15:31.968Z,85984.00
2018-08-11T08:16:32.134Z,90272.00
2018-08-11T08:17:32.576Z,96192.00
2018-08-11T08:18:32.782Z,99744.00
2018-08-11T08:19:32.686Z,98368.00
2018-08-11T08:20:33.560Z,95808.00
2018-08-11T08:21:33.053Z,86656.00
2018-08-11T08:22:33.299Z,98784.00
2018-08-11T08:23:34.482Z,94464.00
2018-08-11T08:24:33.667Z,97504.00
2018-08-11T08:25:34.099Z,91776.00
2018-08-11T08:26:34.359Z,12156.00
2018-08-11T08:27:34.581Z,100384.00
2018-08-11T08:28:34.799Z,104352.00
2018-08-11T08:29:35.472Z,102304.00
2018-08-11T08:30:34.614Z,89696.00
2018-08-11T08:31:34.867Z,6276.00
2018-08-11T08:32:35.204Z,5060.00
2018-08-11T08:33:35.182Z,6220.00
2018-08-11T08:34:35.225Z,106016.00
2018-08-11T08:35:35.412Z,88800.00
2018-08-11T08:36:35.817Z,8096.00
2018-08-11T08:37:35.977Z,4036.00
2018-08-11T08:38:36.073Z,2680.00
2018-08-11T08:39:36.144Z,2772.00
2018-08-11T08:40:36.716Z,3208.00
2018-08-11T08:41:36.690Z,109856.00
2018-08-11T08:42:36.765Z,104128.00
2018-08-11T08:43:36.951Z,105920.00
2018-08-11T08:44:37.143Z,105280.00
2018-08-11T08:45:37.320Z,102656.00
2018-08-11T08:46:39.586Z,101344.00
2018-08-11T08:47:38.253Z,102624.00
2018-08-11T08:48:37.894Z,4036.00
2018-08-11T08:49:38.067Z,7512.00
2018-08-11T08:50:39.628Z,101280.00
2018-08-11T08:51:38.432Z,87264.00
2018-08-11T08:52:38.631Z,29120.00
2018-08-11T08:53:38.810Z,13192.00
2018-08-11T08:54:39.003Z,21568.00
2018-08-11T08:55:39.187Z,15236.00
2018-08-11T08:56:39.383Z,5640.00
2018-08-11T08:57:39.575Z,6996.00
2018-08-11T08:58:39.765Z,11672.00
2018-08-11T08:59:39.962Z,6068.00
2018-08-11T09:00:40.307Z,5896.00
2018-08-11T09:01:40.363Z,5288.00
2018-08-11T09:02:40.556Z,6776.00
2018-08-11T09:03:40.771Z,90464.00
2018-08-11T09:04:40.957Z,5544.00
2018-08-11T09:05:41.286Z,3268.00
2018-08-11T09:06:41.300Z,3484.00
2018-08-11T09:07:41.483Z,23264.00
2018-08-11T09:08:41.703Z,7828.00
2018-08-11T09:09:41.899Z,7880.00
2018-08-11T09:10:42.338Z,99264.00
2018-08-11T09:11:42.430Z,98368.00
2018-08-11T09:12:42.393Z,95488.00
2018-08-11T09:13:42.582Z,94592.00
2018-08-11T09:14:42.755Z,98720.00
2018-08-11T09:15:42.948Z,95456.00
2018-08-11T09:16:43.136Z,7028.00
2018-08-11T09:17:43.489Z,4196.00
2018-08-11T09:18:45.448Z,3252.00
2018-08-11T09:19:43.908Z,3184.00
2018-08-11T09:20:44.541Z,4320.00
2018-08-11T09:21:44.121Z,5464.00
2018-08-11T09:22:44.321Z,4760.00
2018-08-11T09:23:44.517Z,4684.00
2018-08-11T09:24:44.958Z,6480.00
2018-08-11T09:25:44.952Z,77216.00
2018-08-11T09:26:45.094Z,14708.00
2018-08-11T09:27:45.170Z,6080.00
2018-08-11T09:28:45.369Z,5048.00
2018-08-11T09:29:45.576Z,4860.00
2018-08-11T09:30:45.770Z,16556.00
2018-08-11T09:31:45.960Z,30304.00
2018-08-11T09:32:46.147Z,29472.00
2018-08-11T09:33:46.349Z,25824.00
2018-08-11T09:34:46.567Z,29376.00
2018-08-11T09:35:46.739Z,27808.00
2018-08-11T09:36:47.175Z,5388.00
2018-08-11T09:37:47.330Z,27360.00
2018-08-11T09:38:47.678Z,5800.00
2018-08-11T09:39:47.665Z,4328.00
2018-08-11T09:40:47.747Z,3864.00
2018-08-11T09:41:47.961Z,27968.00
2018-08-11T09:42:48.157Z,27520.00
2018-08-11T09:43:48.092Z,15132.00
2018-08-11T09:44:48.296Z,29856.00
2018-08-11T09:45:48.633Z,20960.00
2018-08-11T09:46:48.719Z,27616.00
2018-08-11T09:47:49.135Z,5392.00
2018-08-11T09:48:49.120Z,16156.00
2018-08-11T09:49:49.295Z,28928.00
2018-08-11T09:50:49.494Z,5592.00
2018-08-11T09:51:49.788Z,5104.00
2018-08-11T09:52:49.885Z,5548.00
2018-08-11T09:53:50.024Z,5248.00
2018-08-11T09:54:50.107Z,7668.00
2018-08-11T09:55:50.302Z,23232.00
2018-08-11T09:56:50.528Z,32768.00
2018-08-11T09:57:50.594Z,33760.00
2018-08-11T09:58:50.799Z,9552.00
2018-08-11T09:59:51.011Z,7504.00
2018-08-11T10:00:51.187Z,8328.00
2018-08-11T10:01:51.388Z,8140.00
2018-08-11T10:02:51.592Z,6508.00
2018-08-11T10:03:51.802Z,56384.00
2018-08-11T10:04:52.062Z,6372.00
2018-08-11T10:05:52.137Z,6620.00
2018-08-11T10:06:52.389Z,7000.00
2018-08-11T10:07:52.568Z,8720.00
2018-08-11T10:08:52.790Z,68768.00
2018-08-11T10:09:53.033Z,17472.00
2018-08-11T10:10:53.096Z,11004.00
2018-08-11T10:11:53.324Z,60032.00
2018-08-11T10:12:53.391Z,49216.00
2018-08-11T10:13:53.623Z,43136.00
2018-08-11T10:14:53.693Z,43616.00
2018-08-11T10:15:53.910Z,45888.00
2018-08-11T10:16:54.104Z,46272.00
2018-08-11T10:17:54.286Z,41568.00
2018-08-11T10:18:54.478Z,37856.00
2018-08-11T10:19:54.682Z,3056.00
2018-08-11T10:20:54.899Z,4564.00
2018-08-11T10:21:55.011Z,20288.00
2018-08-11T10:22:55.204Z,6348.00
2018-08-11T10:23:55.399Z,5544.00
2018-08-11T10:24:55.592Z,6060.00
2018-08-11T10:25:55.805Z,6016.00
2018-08-11T10:26:56.028Z,4456.00
2018-08-11T10:27:56.215Z,4120.00
2018-08-11T10:28:56.426Z,4180.00
2018-08-11T10:29:56.606Z,4628.00
2018-08-11T10:30:56.792Z,5008.00
2018-08-11T10:31:57.055Z,4648.00
2018-08-11T10:32:57.109Z,4816.00
2018-08-11T10:33:57.298Z,34176.00
2018-08-11T10:34:57.499Z,6188.00
2018-08-11T10:35:57.678Z,10936.00
2018-08-11T10:36:57.905Z,4948.00
2018-08-11T10:37:58.082Z,4972.00
2018-08-11T10:38:58.270Z,5008.00
2018-08-11T10:39:58.477Z,4844.00
2018-08-11T10:40:58.640Z,23296.00
2018-08-11T10:41:58.821Z,36608.00
2018-08-11T10:42:59.004Z,33312.00
2018-08-11T10:43:59.191Z,32640.00
2018-08-11T10:44:59.370Z,32928.00
2018-08-11T10:45:59.706Z,32992.00
2018-08-11T10:46:59.738Z,32288.00
2018-08-11T10:47:59.880Z,10072.00
2018-08-11T10:49:00.078Z,34176.00
2018-08-11T10:50:00.259Z,32704.00
2018-08-11T10:51:00.463Z,34304.00
2018-08-11T10:52:00.647Z,34912.00
2018-08-11T10:53:00.949Z,36384.00
2018-08-11T10:54:01.007Z,17984.00
2018-08-11T10:55:01.194Z,35296.00
2018-08-11T10:56:01.410Z,36608.00
2018-08-11T10:57:01.565Z,32096.00
2018-08-11T10:58:01.748Z,28896.00
2018-08-11T10:59:01.936Z,38336.00
2018-08-11T11:00:02.133Z,40256.00
2018-08-11T11:01:02.455Z,42432.00
2018-08-11T11:02:02.521Z,7932.00
2018-08-11T11:03:02.893Z,4576.00
2018-08-11T11:04:02.842Z,4252.00
2018-08-11T11:05:03.032Z,48480.00
2018-08-11T11:06:03.208Z,53344.00
2018-08-11T11:07:03.391Z,58176.00
2018-08-11T11:08:03.593Z,60320.00
2018-08-11T11:09:03.771Z,4900.00
2018-08-11T11:10:03.952Z,4764.00
2018-08-11T11:11:04.140Z,67552.00
2018-08-11T11:12:04.325Z,6744.00
2018-08-11T11:13:04.516Z,68736.00
2018-08-11T11:14:04.712Z,58144.00
2018-08-11T11:15:04.893Z,51776.00
2018-08-11T11:16:05.083Z,47776.00
2018-08-11T11:17:05.280Z,41792.00
2018-08-11T11:18:05.461Z,38112.00
2018-08-11T11:19:06.131Z,37696.00
2018-08-11T11:20:05.835Z,34816.00
2018-08-11T11:21:06.023Z,28256.00
2018-08-11T11:22:06.211Z,22400.00
2018-08-11T11:23:06.411Z,18144.00
2018-08-11T11:24:06.597Z,15752.00
2018-08-11T11:25:06.779Z,14560.00
2018-08-11T11:26:08.703Z,13732.00
2018-08-11T11:27:08.727Z,13360.00
2018-08-11T11:28:09.479Z,13124.00
2018-08-11T11:29:09.601Z,12844.00
2018-08-11T11:30:09.121Z,12588.00
2018-08-11T11:31:09.634Z,12464.00
2018-08-11T11:32:09.646Z,12280.00
2018-08-11T11:33:09.770Z,9412.00
2018-08-11T11:34:11.725Z,13004.00
2018-08-11T11:35:08.789Z,12628.00
2018-08-11T11:36:11.670Z,12200.00
2018-08-11T11:37:08.990Z,12060.00
2018-08-11T11:38:11.759Z,12016.00
2018-08-11T11:39:10.022Z,11760.00
2018-08-11T11:40:11.980Z,11656.00
2018-08-11T11:41:09.659Z,11532.00
2018-08-11T11:42:09.832Z,11724.00
2018-08-11T11:43:12.335Z,11472.00
2018-08-11T11:44:11.078Z,11360.00
2018-08-11T11:45:10.364Z,3416.00
2018-08-11T11:46:10.555Z,4616.00
2018-08-11T11:47:10.738Z,5592.00
2018-08-11T11:48:10.965Z,14132.00
2018-08-11T11:49:11.165Z,10184.00
2018-08-11T11:50:11.349Z,6224.00
2018-08-11T11:51:11.538Z,4372.00
2018-08-11T11:52:11.732Z,4068.00
2018-08-11T11:53:11.914Z,4120.00
2018-08-11T11:54:12.112Z,4692.00
2018-08-11T11:55:13.537Z,4208.00
2018-08-11T11:56:12.432Z,9856.00
2018-08-11T11:57:12.625Z,10004.00
2018-08-11T11:58:12.812Z,9344.00
2018-08-11T11:59:15.016Z,4296.00
2018-08-11T12:00:16.734Z,8988.00
2018-08-11T12:01:17.615Z,4768.00
2018-08-11T12:02:16.077Z,3836.00
2018-08-11T12:03:13.621Z,3840.00
2018-08-11T12:04:13.810Z,3464.00
2018-08-11T12:05:14.083Z,3932.00
2018-08-11T12:06:14.140Z,5660.00
2018-08-11T12:07:14.327Z,7772.00
2018-08-11T12:08:15.379Z,7008.00
2018-08-11T12:09:14.749Z,6108.00
2018-08-11T12:10:14.923Z,5272.00
2018-08-11T12:11:15.108Z,4752.00
2018-08-11T12:12:15.297Z,4188.00
2018-08-11T12:13:15.617Z,2988.00
2018-08-11T12:14:15.691Z,3168.00
2018-08-11T12:15:15.870Z,3472.00
2018-08-11T12:16:16.052Z,3628.00
2018-08-11T12:17:16.238Z,3804.00
2018-08-11T12:18:16.429Z,4036.00
2018-08-11T12:19:16.607Z,3460.00
2018-08-11T12:20:16.782Z,4300.00
2018-08-11T12:21:16.968Z,4492.00
2018-08-11T12:22:18.241Z,4236.00
2018-08-11T12:23:17.420Z,4052.00
2018-08-11T12:24:17.488Z,3472.00
2018-08-11T12:25:17.677Z,3116.00
2018-08-11T12:26:17.874Z,3008.00